createdAt,value
2023-03-10T00:00:22.673Z,2.700
2023-03-10T00:01:22.244Z,0.899
2023-03-10T00:02:21.911Z,1.399
2023-03-10T00:03:21.719Z,1
2023-03-10T00:04:21.807Z,1.700
2023-03-10T00:05:21.949Z,0.899
2023-03-10T00:06:22.162Z,0.800
2023-03-10T00:07:21.813Z,1.399
2023-03-10T00:09:22.074Z,1
2023-03-10T00:11:21.966Z,1.100
2023-03-10T00:12:22.233Z,1.799
2023-03-10T00:13:21.067Z,0.600
2023-03-10T00:14:19.347Z,0.699
2023-03-10T00:16:21.624Z,1.600
2023-03-10T00:17:21.375Z,1.399
2023-03-10T00:18:21.671Z,1.700
2023-03-10T00:19:21.592Z,1
2023-03-10T00:20:21.892Z,1.100
2023-03-10T00:21:22.081Z,1.299
2023-03-10T00:22:21.295Z,0.800
2023-03-10T00:24:21.238Z,1.100
2023-03-10T00:26:21.140Z,1.5
2023-03-10T00:27:21.647Z,1.100
2023-03-10T00:29:21.263Z,1.200
2023-03-10T00:30:22.096Z,0.5
2023-03-10T00:31:21.306Z,0.400
2023-03-10T00:32:21.332Z,0.5
2023-03-10T00:33:21.255Z,1
2023-03-10T00:34:20.901Z,0.800
2023-03-10T00:35:21.519Z,0.5
2023-03-10T00:36:21.602Z,1
2023-03-10T00:37:21.412Z,1.200
2023-03-10T00:38:21.530Z,0.800
2023-03-10T00:39:21.080Z,1.399
2023-03-10T00:40:21.940Z,0.699
2023-03-10T00:41:21.461Z,0.800
2023-03-10T00:42:21.377Z,0.699
2023-03-10T00:43:21.143Z,0.600
2023-03-10T00:44:21.296Z,1.5
2023-03-10T00:45:22.197Z,0.5
2023-03-10T00:46:21.451Z,0.600
2023-03-10T00:47:21.470Z,1.100
2023-03-10T00:48:21.125Z,0.300
2023-03-10T00:49:21.057Z,1.5
2023-03-10T00:50:21.323Z,1.899
2023-03-10T00:51:21.673Z,0.600
2023-03-10T00:52:21.715Z,0.699
2023-03-10T00:53:21.495Z,0.600
2023-03-10T00:54:21.069Z,0.800
2023-03-10T00:55:22.043Z,1.600
2023-03-10T00:56:21.595Z,0.699
2023-03-10T00:57:21.264Z,0.800
2023-03-10T00:58:21.535Z,1
2023-03-10T00:59:21.401Z,0.5
2023-03-10T01:02:26.264Z,0.600
2023-03-10T01:04:21.568Z,0.899
2023-03-10T01:05:21.760Z,1
2023-03-10T01:06:21.568Z,0.5
2023-03-10T01:07:21.203Z,0.899
2023-03-10T01:08:21.332Z,1
2023-03-10T01:10:22.503Z,0.400
2023-03-10T01:11:21.345Z,0.5
2023-03-10T01:12:21.318Z,3.299
2023-03-10T01:13:21.150Z,1.200
2023-03-10T01:14:20.849Z,0.600
2023-03-10T01:15:21.895Z,0.5
2023-03-10T01:16:21.925Z,0.100
2023-03-10T01:17:21.948Z,0.699
2023-03-10T01:18:21.361Z,0.600
2023-03-10T01:19:21.062Z,0.300
2023-03-10T01:20:22.077Z,1
2023-03-10T01:21:20.634Z,0.600
2023-03-10T01:22:21.816Z,1
2023-03-10T01:23:21.169Z,1.700
2023-03-10T01:24:35.214Z,0.400
2023-03-10T01:25:20.855Z,1.200
2023-03-10T01:26:21.300Z,0.300
2023-03-10T01:27:21.197Z,0.600
2023-03-10T01:28:34.802Z,0.200
2023-03-10T01:29:21.076Z,0.800
2023-03-10T01:30:21.707Z,0.699
2023-03-10T01:31:21.601Z,0.400
2023-03-10T01:32:21.760Z,0.699
2023-03-10T01:33:21.273Z,0.899
2023-03-10T01:35:21.461Z,1.5
2023-03-10T01:36:21.138Z,0.5
2023-03-10T01:37:20.996Z,0.300
2023-03-10T01:38:21.028Z,1.200
2023-03-10T01:39:20.980Z,0.600
2023-03-10T01:40:21.352Z,1.200
2023-03-10T01:41:21.266Z,0.699
2023-03-10T01:42:21.274Z,0.300
2023-03-10T01:43:21.266Z,0.5
2023-03-10T01:44:21.146Z,0.600
2023-03-10T01:45:21.790Z,0.5
2023-03-10T01:46:21.244Z,0.400
2023-03-10T01:47:20.949Z,0.200
2023-03-10T01:48:21.581Z,0.300
2023-03-10T01:49:21.168Z,0.400
2023-03-10T01:50:21.129Z,0.200
2023-03-10T01:52:21.483Z,0.400
2023-03-10T01:53:20.999Z,0.300
2023-03-10T01:54:21.111Z,1.700
2023-03-10T01:55:21.602Z,1
2023-03-10T01:56:21.288Z,0.600
2023-03-10T01:58:21.066Z,1.299
2023-03-10T01:59:21.128Z,1
2023-03-10T02:00:22.630Z,0.600
2023-03-10T02:01:21.498Z,0.699
2023-03-10T02:02:21.510Z,0.899
2023-03-10T02:03:21.802Z,1.700
2023-03-10T02:04:21.134Z,0.800
2023-03-10T02:05:21.067Z,1.100
2023-03-10T02:06:20.898Z,1
2023-03-10T02:07:21.256Z,0.800
2023-03-10T02:08:21.009Z,0.699
2023-03-10T02:09:21.040Z,1.399
2023-03-10T02:10:21.635Z,1.600
2023-03-10T02:11:21.705Z,1.299
2023-03-10T02:14:21.251Z,1.200
2023-03-10T02:15:21.390Z,1.600
2023-03-10T02:17:21.141Z,1.799
2023-03-10T02:18:20.799Z,1.200
2023-03-10T02:19:21.166Z,0.699
2023-03-10T02:20:21.840Z,0.600
2023-03-10T02:21:21.106Z,1.299
2023-03-10T02:22:21.243Z,1.600
2023-03-10T02:23:21.339Z,2.599
2023-03-10T02:25:21.893Z,1.299
2023-03-10T02:27:21.350Z,1.100
2023-03-10T02:28:20.979Z,1.5
2023-03-10T02:29:21.505Z,1.799
2023-03-10T02:30:21.589Z,2.099
2023-03-10T02:31:20.980Z,1.5
2023-03-10T02:32:21.140Z,1.700
2023-03-10T02:33:21.024Z,1.5
2023-03-10T02:34:20.761Z,1.600
2023-03-10T02:35:22.193Z,0.800
2023-03-10T02:36:21.046Z,2.700
2023-03-10T02:37:21.338Z,1.700
2023-03-10T02:38:20.811Z,2.700
2023-03-10T02:39:20.854Z,1.799
2023-03-10T02:40:21.606Z,2.799
2023-03-10T02:41:21.742Z,1.799
2023-03-10T02:42:21.400Z,2.400
2023-03-10T02:43:20.824Z,2.900
2023-03-10T02:44:21.718Z,3
2023-03-10T02:45:21.638Z,2.599
2023-03-10T02:46:21.031Z,4.199
2023-03-10T02:47:21.257Z,4
2023-03-10T02:49:20.886Z,2.400
2023-03-10T02:50:22.048Z,5.599
2023-03-10T02:51:22.021Z,3.900
2023-03-10T02:52:21.735Z,2.900
2023-03-10T02:53:21.458Z,4.099
2023-03-10T02:54:21.160Z,3.299
2023-03-10T02:55:21.440Z,3.799
2023-03-10T02:56:21.178Z,4.400
2023-03-10T02:58:21.759Z,4.5
2023-03-10T02:59:21.178Z,6.599
2023-03-10T03:00:22.694Z,3.799
2023-03-10T03:01:21.670Z,4.800
2023-03-10T03:02:21.267Z,5.300
2023-03-10T03:06:21.379Z,7.599
2023-03-10T03:07:21.358Z,5.5
2023-03-10T03:08:21.162Z,6.699
2023-03-10T03:09:21.202Z,4.400
2023-03-10T03:10:21.454Z,6.199
2023-03-10T03:11:20.803Z,5
2023-03-10T03:12:21.592Z,6.699
2023-03-10T03:13:20.723Z,5.900
2023-03-10T03:14:21.069Z,5.599
2023-03-10T03:15:21.849Z,6.5
2023-03-10T03:16:21.050Z,5.099
2023-03-10T03:17:20.953Z,6
2023-03-10T03:18:21.118Z,6.400
2023-03-10T03:19:21.241Z,5.400
2023-03-10T03:20:21.353Z,6.800
2023-03-10T03:21:20.580Z,5.599
2023-03-10T03:22:21.663Z,6.199
2023-03-10T03:23:21.238Z,7.400
2023-03-10T03:24:21.639Z,5.699
2023-03-10T03:25:21.971Z,6.800
2023-03-10T03:27:20.898Z,6.5
2023-03-10T03:28:21.094Z,7.599
2023-03-10T03:29:21.457Z,7.5
2023-03-10T03:30:22.250Z,8.800
2023-03-10T03:31:20.915Z,6.199
2023-03-10T03:32:20.600Z,6.599
2023-03-10T03:33:21.480Z,6.300
2023-03-10T03:34:21.425Z,7.099
2023-03-10T03:35:21.826Z,6.400
2023-03-10T03:36:21.428Z,5.300
2023-03-10T03:37:21.165Z,5
2023-03-10T03:38:20.908Z,5.5
2023-03-10T03:39:21.295Z,6.699
2023-03-10T03:40:21.050Z,6.900
2023-03-10T03:41:21.177Z,7
2023-03-10T03:42:20.797Z,7.300
2023-03-10T03:43:21.859Z,6.400
2023-03-10T03:44:21.601Z,7.300
2023-03-10T03:45:29.453Z,4.599
2023-03-10T03:46:21.366Z,5.099
2023-03-10T03:47:21.317Z,6.599
2023-03-10T03:48:22.402Z,7
2023-03-10T03:49:21.058Z,9
2023-03-10T03:50:21.213Z,6.300
2023-03-10T03:51:21.492Z,5
2023-03-10T03:52:21.138Z,4.5
2023-03-10T03:53:21.068Z,6.5
2023-03-10T03:54:21.027Z,6.300
2023-03-10T03:55:21.428Z,6.699
2023-03-10T03:56:20.755Z,5
2023-03-10T03:57:21.495Z,5.800
2023-03-10T03:58:21.264Z,4.900
2023-03-10T03:59:20.981Z,6.599
2023-03-10T04:00:23.210Z,6.099
2023-03-10T04:01:21.349Z,5.300
2023-03-10T04:02:20.872Z,6
2023-03-10T04:03:21.721Z,4.300
2023-03-10T04:04:21.116Z,6.699
2023-03-10T04:05:20.857Z,7.900
2023-03-10T04:06:21.761Z,5.099
2023-03-10T04:07:21.513Z,5.5
2023-03-10T04:08:21.340Z,3.799
2023-03-10T04:09:21.268Z,4.800
2023-03-10T04:10:21.496Z,3.5
2023-03-10T04:11:21.420Z,5.300
2023-03-10T04:12:21.382Z,4
2023-03-10T04:13:21.081Z,4.400
2023-03-10T04:14:20.959Z,5.300
2023-03-10T04:15:21.349Z,5.199
2023-03-10T04:16:21.306Z,4.599
2023-03-10T04:17:20.918Z,4.5
2023-03-10T04:18:21.169Z,5.800
2023-03-10T04:19:21.235Z,6.599
2023-03-10T04:20:21.821Z,4.199
2023-03-10T04:22:21.490Z,5.599
2023-03-10T04:23:21.280Z,5.5
2023-03-10T04:24:21.361Z,3.900
2023-03-10T04:26:22.010Z,4.5
2023-03-10T04:27:21.920Z,4.699
2023-03-10T04:28:21.549Z,3.900
2023-03-10T04:29:21.417Z,5.599
2023-03-10T04:30:21.755Z,5.5
2023-03-10T04:31:22.295Z,6.199
2023-03-10T04:32:21.369Z,6.800
2023-03-10T04:33:21.217Z,6.900
2023-03-10T04:34:21.396Z,5.699
2023-03-10T04:35:21.200Z,6.699
2023-03-10T04:36:21.510Z,6.099
2023-03-10T04:37:21.106Z,5.599
2023-03-10T04:39:21.006Z,5.300
2023-03-10T04:40:22.280Z,6.5
2023-03-10T04:41:21.260Z,5.199
2023-03-10T04:42:21.754Z,7.300
2023-03-10T04:43:20.734Z,6.900
2023-03-10T04:44:30.413Z,5
2023-03-10T04:45:21.339Z,4.900
2023-03-10T04:46:21.699Z,5.5
2023-03-10T04:47:21.373Z,5.800
2023-03-10T04:48:21.313Z,4.699
2023-03-10T04:49:20.917Z,4.5
2023-03-10T04:50:22.521Z,4
2023-03-10T04:51:20.973Z,5.400
2023-03-10T04:52:21.509Z,4
2023-03-10T04:53:21.451Z,5.300
2023-03-10T04:54:21.149Z,5.199
2023-03-10T04:55:21.092Z,3.799
2023-03-10T04:56:21.940Z,4.400
2023-03-10T04:57:21.964Z,4.199
2023-03-10T04:58:21.557Z,3.5
2023-03-10T04:59:21.813Z,4.800
2023-03-10T05:00:23.238Z,3.700
2023-03-10T05:01:21.583Z,5.300
2023-03-10T05:02:23.295Z,3.799
2023-03-10T05:03:21.402Z,4.699
2023-03-10T05:04:21.887Z,5.599
2023-03-10T05:05:21.850Z,5.099
2023-03-10T05:06:21.599Z,5.300
2023-03-10T05:07:21.422Z,4.599
2023-03-10T05:08:21.529Z,6
2023-03-10T05:09:21.648Z,6.5
2023-03-10T05:10:21.907Z,5
2023-03-10T05:11:21.020Z,4.900
2023-03-10T05:12:21.925Z,4
2023-03-10T05:13:21.725Z,3.799
2023-03-10T05:14:21.239Z,3.5
2023-03-10T05:15:21.648Z,4.699
2023-03-10T05:16:21.621Z,3.799
2023-03-10T05:17:21.117Z,4.099
2023-03-10T05:18:21.430Z,4.199
2023-03-10T05:19:21.349Z,5.300
2023-03-10T05:20:21.693Z,4.699
2023-03-10T05:21:21.523Z,3.599
2023-03-10T05:22:21.675Z,2.5
2023-03-10T05:23:20.973Z,3.599
2023-03-10T05:24:20.919Z,3
2023-03-10T05:25:22.372Z,3.099
2023-03-10T05:26:21.098Z,3.599
2023-03-10T05:27:21.255Z,2.799
2023-03-10T05:28:21.298Z,3.599
2023-03-10T05:30:21.591Z,2.700
2023-03-10T05:31:21.435Z,3.900
2023-03-10T05:32:21.694Z,4.599
2023-03-10T05:33:21.450Z,2.799
2023-03-10T05:34:21.431Z,3.599
2023-03-10T05:35:21.884Z,2.299
2023-03-10T05:36:21.863Z,4.599
2023-03-10T05:37:21.917Z,2.799
2023-03-10T05:38:21.458Z,2.700
2023-03-10T05:39:21.471Z,2.900
2023-03-10T05:40:21.300Z,3.700
2023-03-10T05:41:20.728Z,2.5
2023-03-10T05:42:21.221Z,1.899
2023-03-10T05:43:21.266Z,2.400
2023-03-10T05:44:21.446Z,2.099
2023-03-10T05:45:21.409Z,3.099
2023-03-10T05:46:21.232Z,2.799
2023-03-10T05:47:21.129Z,1.600
2023-03-10T05:48:20.781Z,3
2023-03-10T05:49:21.318Z,2
2023-03-10T05:50:21.150Z,2.5
2023-03-10T05:51:20.881Z,1.600
2023-03-10T05:52:21.385Z,2.099
2023-03-10T05:54:21.788Z,1.899
2023-03-10T05:55:21.318Z,2.099
2023-03-10T05:56:21.930Z,2.799
2023-03-10T05:57:21.874Z,2.5
2023-03-10T05:58:21.668Z,1.299
2023-03-10T05:59:21.981Z,2
2023-03-10T06:00:28.301Z,3.200
2023-03-10T06:01:21.865Z,2.099
2023-03-10T06:02:21.126Z,1.299
2023-03-10T06:03:21.911Z,3.400
2023-03-10T06:04:21.760Z,1.600
2023-03-10T06:05:22.362Z,1.899
2023-03-10T06:06:29.860Z,3.599
2023-03-10T06:07:21.987Z,2.5
2023-03-10T06:08:29.315Z,2.900
2023-03-10T06:09:22.217Z,2.5
2023-03-10T06:10:21.908Z,2.599
2023-03-10T06:11:21.478Z,3.299
2023-03-10T06:12:35.630Z,2.299
2023-03-10T06:13:21.699Z,2.099
2023-03-10T06:14:35.367Z,2.200
2023-03-10T06:15:22.073Z,1.899
2023-03-10T06:16:21.480Z,2
2023-03-10T06:17:21.668Z,1.899
2023-03-10T06:18:21.888Z,2.400
2023-03-10T06:19:21.486Z,2.200
2023-03-10T06:20:21.969Z,2
2023-03-10T06:21:21.240Z,1.899
2023-03-10T06:22:20.772Z,1.200
2023-03-10T06:23:21.505Z,1.799
2023-03-10T06:24:21.906Z,1.899
2023-03-10T06:25:21.757Z,2.299
2023-03-10T06:26:22.631Z,3.099
2023-03-10T06:27:22.350Z,3.799
2023-03-10T06:28:22.517Z,2.299
2023-03-10T06:29:21.870Z,2.700
2023-03-10T06:30:21.932Z,2
2023-03-10T06:31:21.710Z,2.299
2023-03-10T06:32:22.063Z,1.799
2023-03-10T06:33:21.086Z,3.099
2023-03-10T06:34:21.254Z,3
2023-03-10T06:35:21.866Z,2.900
2023-03-10T06:36:21.665Z,2.599
2023-03-10T06:37:21.633Z,2.200
2023-03-10T06:38:21.427Z,3.099
2023-03-10T06:39:21.820Z,3.700
2023-03-10T06:40:22.001Z,2.5
2023-03-10T06:41:21.738Z,3.200
2023-03-10T06:42:21.395Z,2.299
2023-03-10T06:43:21.562Z,2.099
2023-03-10T06:44:21.280Z,4
2023-03-10T06:45:22.012Z,2.299
2023-03-10T06:46:21.635Z,3.200
2023-03-10T06:47:22.071Z,2.200
2023-03-10T06:48:21.224Z,2.700
2023-03-10T06:49:21.491Z,2.099
2023-03-10T06:50:22.124Z,3.799
2023-03-10T06:51:21.178Z,4.599
2023-03-10T06:52:21.076Z,4.900
2023-03-10T06:53:21.099Z,1.700
2023-03-10T06:54:21.487Z,3.5
2023-03-10T06:55:22.934Z,2.799
2023-03-10T06:56:22.208Z,3.200
2023-03-10T06:57:22.053Z,2.799
2023-03-10T06:58:21.813Z,3.5
2023-03-10T06:59:21.444Z,3.099
2023-03-10T07:00:23.002Z,3.400
2023-03-10T07:01:22.074Z,2.799
2023-03-10T07:02:21.478Z,3.599
2023-03-10T07:03:21.508Z,3.400
2023-03-10T07:04:21.925Z,3.200
2023-03-10T07:05:22.118Z,2.5
2023-03-10T07:06:21.404Z,3.599
2023-03-10T07:07:21.674Z,2.599
2023-03-10T07:08:21.478Z,5.099
2023-03-10T07:09:21.863Z,2.700
2023-03-10T07:10:22.299Z,3.400
2023-03-10T07:11:22.113Z,2.900
2023-03-10T07:13:21.612Z,5.599
2023-03-10T07:14:21.401Z,4.5
2023-03-10T07:15:22.609Z,4.199
2023-03-10T07:16:21.606Z,4
2023-03-10T07:17:21.993Z,3.900
2023-03-10T07:18:21.626Z,6.199
2023-03-10T07:19:21.484Z,4.800
2023-03-10T07:20:22.441Z,3.299
2023-03-10T07:21:21.519Z,3.099
2023-03-10T07:22:21.548Z,4.699
2023-03-10T07:23:21.873Z,3.5
2023-03-10T07:24:21.425Z,4.199
2023-03-10T07:25:24.544Z,4.599
2023-03-10T07:26:22.054Z,4.400
2023-03-10T07:27:21.724Z,5.900
2023-03-10T07:28:29.791Z,3.799
2023-03-10T07:29:21.520Z,5
2023-03-10T07:30:22.372Z,4
2023-03-10T07:31:21.533Z,4.800
2023-03-10T07:32:21.703Z,4.599
2023-03-10T07:33:21.492Z,4.900
2023-03-10T07:34:21.823Z,5.900
2023-03-10T07:35:22.333Z,4.5
2023-03-10T07:36:21.661Z,5.300
2023-03-10T07:37:21.114Z,4.699
2023-03-10T07:38:21.947Z,6.5
2023-03-10T07:39:22.034Z,4.599
2023-03-10T07:40:22.378Z,7.400
2023-03-10T07:41:21.701Z,4.5
2023-03-10T07:42:21.650Z,5.800
2023-03-10T07:43:22.024Z,5
2023-03-10T07:44:21.830Z,4.800
2023-03-10T07:45:21.868Z,4.699
2023-03-10T07:46:22.386Z,5.099
2023-03-10T07:47:21.373Z,5.699
2023-03-10T07:48:21.609Z,5.800
2023-03-10T07:49:22.260Z,5.5
2023-03-10T07:50:21.871Z,3.900
2023-03-10T07:51:22.256Z,4
2023-03-10T07:52:21.760Z,5
2023-03-10T07:53:22.182Z,5.400
2023-03-10T07:54:21.679Z,5.300
2023-03-10T07:55:22.100Z,3.5
2023-03-10T07:56:21.891Z,4
2023-03-10T07:57:22.219Z,5
2023-03-10T08:00:23.058Z,5.099
2023-03-10T08:01:22.218Z,4.800
2023-03-10T08:02:22.668Z,3.700
2023-03-10T08:03:21.960Z,5.5
2023-03-10T08:04:21.808Z,4.599
2023-03-10T08:06:22.294Z,2.5
2023-03-10T08:07:22.221Z,3.299
2023-03-10T08:08:22.228Z,5.300
2023-03-10T08:09:22.236Z,4.300
2023-03-10T08:11:21.679Z,2.700
2023-03-10T08:12:21.762Z,4.099
2023-03-10T08:13:22.329Z,4.699
2023-03-10T08:14:21.324Z,4.599
2023-03-10T08:15:22.595Z,4.199
2023-03-10T08:16:21.969Z,3.099
2023-03-10T08:17:21.994Z,2.200
2023-03-10T08:18:21.899Z,2.799
2023-03-10T08:19:27.021Z,3.099
2023-03-10T08:20:21.973Z,3
2023-03-10T08:21:22.148Z,3.400
2023-03-10T08:22:22.719Z,2
2023-03-10T08:23:21.731Z,4.400
2023-03-10T08:24:21.460Z,2.900
2023-03-10T08:25:22.322Z,5.199
2023-03-10T08:26:22.031Z,3.799
2023-03-10T08:27:21.524Z,2.900
2023-03-10T08:28:22.242Z,3.5
2023-03-10T08:29:21.591Z,2.599
2023-03-10T08:30:21.961Z,3.700
2023-03-10T08:31:22.215Z,3.099
2023-03-10T08:32:21.720Z,3.799
2023-03-10T08:33:21.882Z,2.799
2023-03-10T08:34:21.984Z,2.599
2023-03-10T08:35:22.574Z,2.5
2023-03-10T08:36:21.715Z,2.299
2023-03-10T08:37:22.227Z,2.5
2023-03-10T08:38:22.152Z,2.299
2023-03-10T08:39:22.808Z,3.200
2023-03-10T08:40:22.230Z,1.899
2023-03-10T08:41:22.168Z,3.400
2023-03-10T08:42:21.711Z,3.200
2023-03-10T08:43:22.084Z,2.900
2023-03-10T08:44:22.056Z,2.799
2023-03-10T08:46:22.022Z,3.5
2023-03-10T08:47:22.051Z,4.599
2023-03-10T08:48:21.576Z,4
2023-03-10T08:49:21.874Z,2.700
2023-03-10T08:50:22.377Z,3.099
2023-03-10T08:51:22.750Z,2.900
2023-03-10T08:52:22.364Z,3.200
2023-03-10T08:53:22.079Z,4.599
2023-03-10T08:54:21.981Z,2.900
2023-03-10T08:55:22.405Z,3.299
2023-03-10T08:56:22.105Z,2.5
2023-03-10T08:58:22.179Z,3
2023-03-10T08:59:23.108Z,2.5
2023-03-10T09:00:23.121Z,2.099
2023-03-10T09:01:22.179Z,1.799
2023-03-10T09:02:22.696Z,1.600
2023-03-10T09:03:21.986Z,1.799
2023-03-10T09:04:21.856Z,2.799
2023-03-10T09:05:22.031Z,2
2023-03-10T09:07:21.905Z,4.699
2023-03-10T09:08:22.099Z,2.700
2023-03-10T09:09:22.127Z,2.200
2023-03-10T09:10:21.781Z,2.5
2023-03-10T09:11:22.302Z,2.299
2023-03-10T09:12:22.010Z,7
2023-03-10T09:13:21.452Z,3.299
2023-03-10T09:14:21.980Z,5.5
2023-03-10T09:15:22.553Z,3.700
2023-03-10T09:16:22.202Z,4.199
2023-03-10T09:17:21.866Z,4.099
2023-03-10T09:18:21.818Z,2.599
2023-03-10T09:19:22.091Z,2.299
2023-03-10T09:20:21.789Z,4
2023-03-10T09:21:22.347Z,4.800
2023-03-10T09:22:22.625Z,3.5
2023-03-10T09:23:22.618Z,3.700
2023-03-10T09:24:22.156Z,2.599
2023-03-10T09:25:21.808Z,7.400
2023-03-10T09:26:22.190Z,5.400
2023-03-10T09:27:21.519Z,3.599
2023-03-10T09:28:22.569Z,3.400
2023-03-10T09:29:36.422Z,3.700
2023-03-10T09:30:22.596Z,2.799
2023-03-10T09:32:22.822Z,4.5
2023-03-10T09:33:22.657Z,4.099
2023-03-10T09:34:22.073Z,4
2023-03-10T09:35:23.163Z,3.700
2023-03-10T09:36:22.449Z,5.099
2023-03-10T09:37:22.924Z,3
2023-03-10T09:38:22.241Z,4
2023-03-10T09:39:21.918Z,3.900
2023-03-10T09:40:22.344Z,5.599
2023-03-10T09:41:22.130Z,3.200
2023-03-10T09:42:36.347Z,4.5
2023-03-10T09:43:22.846Z,5.099
2023-03-10T09:44:23.040Z,4.400
2023-03-10T09:45:22.557Z,4.199
2023-03-10T09:46:22.135Z,4.300
2023-03-10T09:47:22.068Z,4.599
2023-03-10T09:48:23.567Z,4.400
2023-03-10T09:49:22.574Z,2.599
2023-03-10T09:50:22.668Z,3.700
2023-03-10T09:51:22.289Z,4.300
2023-03-10T09:52:22.208Z,4.5
2023-03-10T09:53:22.634Z,5.099
2023-03-10T09:54:22.263Z,3.799
2023-03-10T09:55:22.719Z,5.599
2023-03-10T09:56:21.715Z,3.900
2023-03-10T09:57:22.357Z,3.400
2023-03-10T09:58:22.216Z,4.800
2023-03-10T09:59:22.668Z,4.400
2023-03-10T10:00:23.323Z,6.699
2023-03-10T10:01:22.532Z,4.199
2023-03-10T10:03:22.770Z,4.300
2023-03-10T10:04:22.546Z,3.599
2023-03-10T10:05:22.453Z,3.200
2023-03-10T10:06:22.547Z,3.400
2023-03-10T10:07:22.469Z,5.199
2023-03-10T10:08:21.734Z,3
2023-03-10T10:09:22.114Z,3.5
2023-03-10T10:10:22.494Z,4.800
2023-03-10T10:11:21.931Z,5.199
2023-03-10T10:12:22.345Z,2.799
2023-03-10T10:13:22.938Z,5.300
2023-03-10T10:14:29.597Z,3.299
2023-03-10T10:15:22.795Z,4.099
2023-03-10T10:16:34.001Z,3.200
2023-03-10T10:17:23.177Z,3.400
2023-03-10T10:18:25.448Z,3.299
2023-03-10T10:19:22.163Z,3.400
2023-03-10T10:20:22.255Z,3.799
2023-03-10T10:21:25.932Z,2.799
2023-03-10T10:22:22.408Z,3.400
2023-03-10T10:24:22.959Z,2.599
2023-03-10T10:25:22.770Z,3.099
2023-03-10T10:26:21.703Z,3.400
2023-03-10T10:28:23.952Z,2.599
2023-03-10T10:29:22.122Z,3.700
2023-03-10T10:30:25.439Z,3.799
2023-03-10T10:31:22.811Z,3
2023-03-10T10:32:23.147Z,2.599
2023-03-10T10:33:22.632Z,4.300
2023-03-10T10:34:22.259Z,2.400
2023-03-10T10:35:22.544Z,2.900
2023-03-10T10:36:22.614Z,3.900
2023-03-10T10:37:22.663Z,2.799
2023-03-10T10:38:22.897Z,2.599
2023-03-10T10:39:22.438Z,2.400
2023-03-10T10:40:22.727Z,1.899
2023-03-10T10:41:22.477Z,3.299
2023-03-10T10:42:22.940Z,2.400
2023-03-10T10:43:22.200Z,2.799
2023-03-10T10:44:22.410Z,3.400
2023-03-10T10:45:23.266Z,4
2023-03-10T10:46:22.503Z,2.400
2023-03-10T10:47:22.833Z,3
2023-03-10T10:48:22.375Z,2.400
2023-03-10T10:49:22.466Z,2.900
2023-03-10T10:50:22.577Z,2.200
2023-03-10T10:51:22.973Z,2.5
2023-03-10T10:52:22.420Z,4.099
2023-03-10T10:53:22.116Z,2.400
2023-03-10T10:54:22.631Z,1.700
2023-03-10T10:55:22.213Z,1.899
2023-03-10T10:56:21.716Z,3.299
2023-03-10T10:57:22.453Z,2
2023-03-10T10:58:21.914Z,2.200
2023-03-10T10:59:23.409Z,2.599
2023-03-10T11:00:29.801Z,2.400
2023-03-10T11:02:31.494Z,1.600
2023-03-10T11:03:23.132Z,1.799
2023-03-10T11:04:23.612Z,1.700
2023-03-10T11:05:22.504Z,4.099
2023-03-10T11:06:36.710Z,1.899
2023-03-10T11:07:22.310Z,1.100
2023-03-10T11:08:22.548Z,1.299
2023-03-10T11:09:22.429Z,2.299
2023-03-10T11:10:22.761Z,1.600
2023-03-10T11:11:22.350Z,1.799
2023-03-10T11:12:22.327Z,2.299
2023-03-10T11:13:22.308Z,1
2023-03-10T11:14:21.745Z,1.600
2023-03-10T11:15:22.576Z,1.399
2023-03-10T11:16:22.213Z,2.099
2023-03-10T11:17:22.889Z,1.299
2023-03-10T11:18:41.312Z,1.100
2023-03-10T11:19:22.567Z,0.899
2023-03-10T11:20:23.787Z,1.700
2023-03-10T11:21:22.037Z,2.200
2023-03-10T11:22:22.220Z,1.200
2023-03-10T11:23:22.488Z,0.899
2023-03-10T11:24:23.533Z,1.700
2023-03-10T11:25:22.299Z,0.5
2023-03-10T11:26:22.750Z,1.299
2023-03-10T11:28:21.940Z,0.899
2023-03-10T11:29:22.852Z,1.399
2023-03-10T11:31:22.887Z,1.5
2023-03-10T11:32:23.143Z,0.800
2023-03-10T11:33:22.697Z,2.200
2023-03-10T11:34:22.098Z,1.200
2023-03-10T11:35:22.155Z,1
2023-03-10T11:36:22.639Z,1.5
2023-03-10T11:37:21.898Z,1.200
2023-03-10T11:38:22.224Z,1.399
2023-03-10T11:39:29.864Z,1.100
2023-03-10T11:40:22.535Z,0.699
2023-03-10T11:41:22.075Z,1
2023-03-10T11:42:23.669Z,1.600
2023-03-10T11:43:22.615Z,0.600
2023-03-10T11:44:22.099Z,1.700
2023-03-10T11:45:22.387Z,1.200
2023-03-10T11:46:22.913Z,1
2023-03-10T11:47:22.532Z,0.800
2023-03-10T11:48:23.098Z,0.699
2023-03-10T11:49:22.520Z,1
2023-03-10T11:51:21.982Z,1.100
2023-03-10T11:52:21.917Z,0.699
2023-03-10T11:53:22.099Z,0.899
2023-03-10T11:54:21.961Z,2.400
2023-03-10T11:55:21.926Z,1.100
2023-03-10T11:56:22.330Z,1.299
2023-03-10T11:57:22.474Z,1.600
2023-03-10T11:58:22.588Z,1.799
2023-03-10T11:59:22.154Z,1.600
2023-03-10T12:00:26.196Z,2
2023-03-10T12:01:22.637Z,2.099
2023-03-10T12:02:22.318Z,2.400
2023-03-10T12:03:22.489Z,2.299
2023-03-10T12:04:22.178Z,2.099
2023-03-10T12:05:22.902Z,1.200
2023-03-10T12:07:22.280Z,1.399
2023-03-10T12:09:22.717Z,1.600
2023-03-10T12:10:22.913Z,1.100
2023-03-10T12:11:22.173Z,1.799
2023-03-10T12:13:22.424Z,1.700
2023-03-10T12:14:21.958Z,1.600
2023-03-10T12:15:23.219Z,1
2023-03-10T12:16:22.010Z,0.699
2023-03-10T12:17:22.929Z,0.200
2023-03-10T12:18:24.995Z,0.800
2023-03-10T12:20:23.508Z,0.5
2023-03-10T12:21:22.202Z,2.200
2023-03-10T12:22:22.786Z,0.600
2023-03-10T12:24:22.483Z,1
2023-03-10T12:25:22.122Z,0.100
2023-03-10T12:26:23.209Z,0.200
2023-03-10T12:27:22.978Z,0.300
2023-03-10T12:28:22.348Z,1
2023-03-10T12:30:25.529Z,1.799
2023-03-10T12:31:22.495Z,1.200
2023-03-10T12:32:22.805Z,0.800
2023-03-10T12:33:22.249Z,0.600
2023-03-10T12:34:22.565Z,0.200
2023-03-10T12:35:22.591Z,0.300
2023-03-10T12:36:22.116Z,1.100
2023-03-10T12:37:22.220Z,0.400
2023-03-10T12:38:22.734Z,0.600
2023-03-10T12:39:22.700Z,0.400
2023-03-10T12:40:22.420Z,0.600
2023-03-10T12:41:21.926Z,0.899
2023-03-10T12:42:22.108Z,0.800
2023-03-10T12:43:22.570Z,0.300
2023-03-10T12:44:22.196Z,0.400
2023-03-10T12:47:22.184Z,0.300
2023-03-10T12:48:22.449Z,0.600
2023-03-10T12:49:22.127Z,0.100
2023-03-10T12:50:22.944Z,0.400
2023-03-10T12:53:22.978Z,0.600
2023-03-10T12:54:22.504Z,0.899
2023-03-10T12:55:22.693Z,0.699
2023-03-10T12:56:22.814Z,1.100
2023-03-10T12:57:22.390Z,1.799
2023-03-10T12:58:22.582Z,0.200
2023-03-10T12:59:22.649Z,0.400
2023-03-10T13:00:23.154Z,0.5
2023-03-10T13:01:22.571Z,0.100
2023-03-10T13:02:24.736Z,0.300
2023-03-10T13:03:22.362Z,0.5
2023-03-10T13:06:22.748Z,0.400
2023-03-10T13:07:22.643Z,0.800
2023-03-10T13:08:22.101Z,0.300
2023-03-10T13:09:22.334Z,1.299
2023-03-10T13:10:22.614Z,0.400
2023-03-10T13:11:21.902Z,0.699
2023-03-10T13:12:22.620Z,0.100
2023-03-10T13:13:22.627Z,1
2023-03-10T13:14:22.261Z,0.300
2023-03-10T13:16:22.157Z,0.100
2023-03-10T13:17:24.861Z,0.300
2023-03-10T13:18:22.387Z,0.200
2023-03-10T13:19:22.304Z,0.699
2023-03-10T13:20:22.795Z,0.899
2023-03-10T13:21:27.829Z,0.800
2023-03-10T13:22:22.224Z,0.400
2023-03-10T13:23:30.455Z,0.600
2023-03-10T13:24:21.936Z,0.300
2023-03-10T13:25:22.104Z,0.400
2023-03-10T13:26:22.653Z,0.800
2023-03-10T13:27:24.006Z,0.5
2023-03-10T13:28:21.662Z,0.600
2023-03-10T13:29:22.170Z,0.800
2023-03-10T13:30:22.972Z,1.399
2023-03-10T13:31:36.631Z,2.400
2023-03-10T13:32:21.724Z,0.800
2023-03-10T13:33:25.313Z,2.099
2023-03-10T13:34:21.886Z,1
2023-03-10T13:35:22.542Z,0.800
2023-03-10T13:36:22.158Z,0.200
2023-03-10T13:38:22.316Z,0.300
2023-03-10T13:39:24.340Z,0.100
2023-03-10T13:40:22.721Z,0.5
2023-03-10T13:41:22.477Z,0.300
2023-03-10T13:42:28.289Z,1
2023-03-10T13:43:22.808Z,0.300
2023-03-10T13:44:22.382Z,1.200
2023-03-10T13:45:41.564Z,0.800
2023-03-10T13:46:22.529Z,0.100
2023-03-10T13:47:22.635Z,1.600
2023-03-10T13:48:22.183Z,0.5
2023-03-10T13:49:22.663Z,0.400
2023-03-10T13:50:21.988Z,0.200
2023-03-10T13:51:22.070Z,0.5
2023-03-10T13:52:22.430Z,0.200
2023-03-10T13:53:22.258Z,0.300
2023-03-10T13:55:22.512Z,1.200
2023-03-10T13:56:22.337Z,0.400
2023-03-10T13:57:22.238Z,0.100
2023-03-10T13:58:21.824Z,10.89
2023-03-10T13:59:22.027Z,0.800
2023-03-10T14:01:44.738Z,0.5
2023-03-10T14:02:22.707Z,0.600
2023-03-10T14:03:22.665Z,0.400
2023-03-10T14:04:22.591Z,0.600
2023-03-10T14:05:22.857Z,0.200
2023-03-10T14:06:22.747Z,0.5
2023-03-10T14:07:22.651Z,0.400
2023-03-10T14:08:22.124Z,0.200